createdAt,value
2023-11-16T00:00:00.954Z,1.73
2023-11-16T00:02:28.479Z,1.85
2023-11-16T00:04:56.088Z,2.10
2023-11-16T00:07:25.203Z,1.90
2023-11-16T00:09:52.110Z,2.95
2023-11-16T00:12:19.674Z,2.42
2023-11-16T00:14:46.407Z,2.00
2023-11-16T00:17:13.110Z,2.00
2023-11-16T00:19:42.955Z,2.13
2023-11-16T00:22:10.790Z,1.80
2023-11-16T00:24:37.573Z,2.65
2023-11-16T00:27:04.960Z,2.17
2023-11-16T00:29:31.810Z,2.38
2023-11-16T00:32:00.024Z,2.05
2023-11-16T00:34:27.086Z,2.00
2023-11-16T00:36:53.758Z,2.20
2023-11-16T00:39:20.977Z,2.70
2023-11-16T00:41:48.617Z,2.45
2023-11-16T00:44:21.287Z,2.90
2023-11-16T00:46:50.569Z,2.05
2023-11-16T00:49:17.656Z,1.70
2023-11-16T00:51:44.286Z,2.00
2023-11-16T00:54:14.150Z,1.85
2023-11-16T00:56:41.167Z,2.20
2023-11-16T00:59:08.121Z,2.65
2023-11-16T01:01:35.262Z,2.20
2023-11-16T01:04:02.432Z,2.15
2023-11-16T01:06:29.537Z,2.20
2023-11-16T01:08:57.539Z,2.10
2023-11-16T01:11:30.680Z,1.92
2023-11-16T01:13:58.999Z,1.90
2023-11-16T01:16:36.092Z,2.08
2023-11-16T01:19:02.922Z,2.42
2023-11-16T01:21:31.008Z,2.75
2023-11-16T01:24:06.578Z,2.20
2023-11-16T01:26:34.337Z,2.15
2023-11-16T01:29:06.310Z,2.33
2023-11-16T01:31:33.024Z,2.20
2023-11-16T01:33:59.879Z,2.50
2023-11-16T01:36:28.129Z,3.63
2023-11-16T01:38:54.904Z,1.70
2023-11-16T01:41:21.735Z,2.58
2023-11-16T01:43:48.737Z,1.90
2023-11-16T01:46:16.470Z,1.80
2023-11-16T01:48:45.002Z,2.00
2023-11-16T01:51:14.472Z,2.33
2023-11-16T01:53:44.861Z,2.00
2023-11-16T01:56:13.419Z,2.08
2023-11-16T01:58:40.875Z,1.60
2023-11-16T02:01:07.966Z,1.70
2023-11-16T02:03:35.260Z,1.63
2023-11-16T02:06:05.102Z,2.60
2023-11-16T02:08:32.211Z,1.85
2023-11-16T02:11:00.442Z,2.38
2023-11-16T02:13:27.229Z,1.63
2023-11-16T02:15:57.605Z,1.52
2023-11-16T02:20:56.527Z,1.83
2023-11-16T02:23:23.572Z,1.92
2023-11-16T02:25:51.918Z,2.00
2023-11-16T02:28:22.289Z,1.42
2023-11-16T02:30:49.637Z,1.90
2023-11-16T02:33:16.624Z,1.70
2023-11-16T02:35:43.708Z,1.67
2023-11-16T02:38:18.455Z,1.83
2023-11-16T02:40:46.187Z,2.30
2023-11-16T02:43:12.853Z,1.98
2023-11-16T02:45:40.033Z,1.60
2023-11-16T02:48:08.134Z,1.90
2023-11-16T02:50:35.813Z,1.85
2023-11-16T02:53:04.285Z,1.80
2023-11-16T02:55:31.077Z,1.70
2023-11-16T02:57:59.185Z,1.60
2023-11-16T03:00:26.668Z,1.40
2023-11-16T03:02:55.441Z,1.60
2023-11-16T03:05:24.821Z,1.60
2023-11-16T03:07:51.933Z,1.60
2023-11-16T03:10:19.021Z,1.63
2023-11-16T03:12:47.085Z,1.63
2023-11-16T03:15:14.659Z,2.08
2023-11-16T03:17:45.281Z,1.70
2023-11-16T03:20:18.003Z,1.98
2023-11-16T03:22:45.998Z,1.48
2023-11-16T03:25:12.863Z,1.45
2023-11-16T03:27:39.742Z,1.55
2023-11-16T03:30:07.337Z,1.65
2023-11-16T03:32:34.465Z,1.48
2023-11-16T03:35:01.203Z,1.70
2023-11-16T03:37:27.999Z,1.85
2023-11-16T03:39:54.814Z,1.73
2023-11-16T03:42:21.708Z,1.58
2023-11-16T03:44:51.071Z,1.42
2023-11-16T03:47:17.910Z,1.63
2023-11-16T03:49:44.715Z,1.67
2023-11-16T03:52:11.504Z,1.90
2023-11-16T03:54:38.220Z,1.67
2023-11-16T03:57:05.481Z,1.70
2023-11-16T03:59:32.306Z,1.30
2023-11-16T04:01:58.975Z,1.52
2023-11-16T04:04:25.689Z,1.40
2023-11-16T04:06:52.509Z,1.60
2023-11-16T04:09:19.274Z,1.77
2023-11-16T04:11:46.116Z,1.50
2023-11-16T04:14:16.563Z,1.65
2023-11-16T04:19:11.357Z,1.30
2023-11-16T04:21:43.420Z,1.58
2023-11-16T04:24:12.320Z,1.50
2023-11-16T04:26:39.603Z,1.38
2023-11-16T04:29:07.717Z,1.55
2023-11-16T04:31:35.653Z,1.50
2023-11-16T04:34:02.958Z,1.40
2023-11-16T04:36:32.995Z,1.17
2023-11-16T04:39:01.293Z,1.50
2023-11-16T04:41:29.370Z,1.27
2023-11-16T04:43:58.868Z,1.38
2023-11-16T04:46:28.861Z,1.40
2023-11-16T04:48:56.626Z,1.63
2023-11-16T04:51:25.703Z,1.50
2023-11-16T04:53:52.880Z,1.38
2023-11-16T04:56:19.661Z,1.48
2023-11-16T04:58:47.241Z,1.27
2023-11-16T05:01:18.027Z,1.70
2023-11-16T05:03:49.038Z,1.55
2023-11-16T05:06:16.571Z,1.48
2023-11-16T05:08:43.880Z,1.70
2023-11-16T05:11:10.687Z,1.60
2023-11-16T05:13:37.272Z,1.38
2023-11-16T05:16:09.862Z,1.42
2023-11-16T05:18:36.727Z,1.17
2023-11-16T05:21:05.498Z,1.40
2023-11-16T05:23:32.296Z,1.30
2023-11-16T05:25:59.060Z,1.50
2023-11-16T05:28:27.202Z,1.63
2023-11-16T05:30:54.192Z,2.05
2023-11-16T05:33:24.013Z,1.60
2023-11-16T05:35:54.987Z,1.55
2023-11-16T05:38:23.448Z,1.40
2023-11-16T05:40:53.195Z,1.58
2023-11-16T05:43:20.931Z,1.40
2023-11-16T05:45:47.637Z,1.55
2023-11-16T05:48:15.694Z,1.63
2023-11-16T05:50:43.912Z,1.50
2023-11-16T05:53:11.434Z,1.15
2023-11-16T05:55:38.429Z,1.45
2023-11-16T05:58:07.136Z,2.25
2023-11-16T06:00:34.921Z,1.50
2023-11-16T06:03:01.955Z,1.30
2023-11-16T06:05:29.544Z,1.45
2023-11-16T06:07:56.612Z,1.70
2023-11-16T06:10:26.115Z,1.52
2023-11-16T06:12:56.610Z,1.70
2023-11-16T06:15:25.664Z,1.52
2023-11-16T06:17:56.099Z,1.58
2023-11-16T06:22:51.970Z,1.60
2023-11-16T06:25:19.365Z,2.30
2023-11-16T06:27:48.234Z,1.73
2023-11-16T06:30:15.751Z,1.55
2023-11-16T06:32:45.814Z,1.58
2023-11-16T06:35:12.862Z,1.45
2023-11-16T06:37:39.887Z,1.73
2023-11-16T06:40:10.987Z,1.80
2023-11-16T06:42:38.907Z,1.67
2023-11-16T06:45:07.042Z,1.70
2023-11-16T06:47:35.182Z,1.52
2023-11-16T06:50:04.647Z,1.40
2023-11-16T06:52:31.773Z,1.90
2023-11-16T06:54:58.722Z,1.60
2023-11-16T06:57:28.057Z,1.67
2023-11-16T06:59:55.162Z,1.45
2023-11-16T07:02:23.436Z,1.50
2023-11-16T07:04:50.388Z,1.40
2023-11-16T07:07:17.964Z,1.80
2023-11-16T07:09:48.441Z,1.60
2023-11-16T07:12:16.587Z,1.70
2023-11-16T07:14:51.344Z,1.95
2023-11-16T07:17:21.337Z,2.05
2023-11-16T07:19:49.578Z,2.05
2023-11-16T07:22:16.223Z,2.83
2023-11-16T07:24:45.650Z,1.75
2023-11-16T07:27:13.668Z,1.70
2023-11-16T07:29:44.341Z,1.60
2023-11-16T07:32:12.590Z,2.03
2023-11-16T07:34:41.022Z,1.67
2023-11-16T07:37:08.424Z,1.80
2023-11-16T07:39:35.596Z,1.80
2023-11-16T07:42:03.572Z,2.60
2023-11-16T07:44:30.298Z,1.60
2023-11-16T07:46:57.324Z,1.77
2023-11-16T07:49:24.483Z,1.70
2023-11-16T07:51:53.075Z,1.75
2023-11-16T07:54:20.166Z,1.80
2023-11-16T07:56:56.656Z,1.63
2023-11-16T07:59:32.582Z,1.60
2023-11-16T08:02:02.709Z,2.20
2023-11-16T08:04:32.814Z,1.83
2023-11-16T08:07:01.415Z,2.20
2023-11-16T08:09:28.425Z,1.95
2023-11-16T08:11:55.510Z,2.63
2023-11-16T08:14:28.134Z,1.95
2023-11-16T08:17:00.502Z,1.70
2023-11-16T08:19:27.863Z,2.20
2023-11-16T08:21:58.700Z,1.70
2023-11-16T08:24:27.822Z,2.20
2023-11-16T08:26:57.728Z,5.07
2023-11-16T08:29:25.101Z,3.45
2023-11-16T08:31:58.465Z,3.83
2023-11-16T08:34:28.645Z,2.53
2023-11-16T08:36:56.559Z,3.35
2023-11-16T08:39:23.394Z,3.30
2023-11-16T08:41:50.202Z,2.83
2023-11-16T08:44:19.760Z,2.63
2023-11-16T08:46:54.220Z,2.35
2023-11-16T08:49:24.294Z,2.25
2023-11-16T08:52:00.958Z,2.55
2023-11-16T08:54:29.769Z,2.17
2023-11-16T08:56:58.978Z,1.98
2023-11-16T08:59:26.462Z,2.58
2023-11-16T09:01:53.562Z,2.10
2023-11-16T09:04:22.285Z,2.10
2023-11-16T09:06:51.833Z,2.20
2023-11-16T09:09:37.773Z,2.28
2023-11-16T09:12:14.626Z,3.42
2023-11-16T09:14:42.856Z,2.97
2023-11-16T09:17:18.697Z,3.05
2023-11-16T09:19:45.821Z,2.92
2023-11-16T09:22:12.967Z,3.38
2023-11-16T09:24:41.292Z,2.97
2023-11-16T09:27:08.255Z,2.20
2023-11-16T09:29:40.613Z,1.80
2023-11-16T09:32:12.335Z,1.70
2023-11-16T09:34:40.752Z,2.10
2023-11-16T09:37:08.298Z,1.95
2023-11-16T09:39:35.418Z,1.90
2023-11-16T09:42:09.059Z,1.80
2023-11-16T09:44:40.775Z,2.30
2023-11-16T09:47:26.860Z,1.88
2023-11-16T09:49:57.924Z,1.90
2023-11-16T09:52:27.464Z,1.70
2023-11-16T09:55:01.660Z,1.97
2023-11-16T09:57:36.140Z,1.77
2023-11-16T10:00:17.278Z,1.83
2023-11-16T10:02:47.059Z,1.90
2023-11-16T10:05:45.795Z,1.60
2023-11-16T10:08:16.789Z,1.90
2023-11-16T10:10:52.929Z,1.73
2023-11-16T10:13:19.724Z,2.25
2023-11-16T10:15:49.302Z,1.70
2023-11-16T10:18:16.306Z,1.50
2023-11-16T10:20:44.338Z,1.80
2023-11-16T10:23:13.129Z,1.75
2023-11-16T10:25:40.918Z,1.55
2023-11-16T10:28:24.192Z,1.80
2023-11-16T10:30:55.435Z,1.33
2023-11-16T10:33:24.560Z,1.60
2023-11-16T10:35:53.622Z,1.48
2023-11-16T10:38:24.091Z,1.80
2023-11-16T10:43:30.829Z,1.40
2023-11-16T10:46:04.284Z,1.58
2023-11-16T10:48:31.368Z,1.50
2023-11-16T10:51:00.429Z,1.40
2023-11-16T10:53:39.613Z,1.40
2023-11-16T10:56:09.843Z,1.60
2023-11-16T10:58:40.918Z,1.73
2023-11-16T11:01:15.521Z,1.77
2023-11-16T11:03:48.991Z,1.52
2023-11-16T11:06:20.458Z,1.60
2023-11-16T11:08:49.710Z,1.48
2023-11-16T11:11:26.053Z,1.65
2023-11-16T11:13:57.870Z,1.20
2023-11-16T11:16:28.809Z,1.50
2023-11-16T11:18:56.241Z,1.50
2023-11-16T11:21:24.959Z,1.40
2023-11-16T11:24:17.915Z,1.65
2023-11-16T11:26:50.480Z,1.75
2023-11-16T11:29:18.458Z,1.85
2023-11-16T11:32:14.461Z,1.50
2023-11-16T11:34:41.466Z,1.50
2023-11-16T11:37:15.355Z,2.00
2023-11-16T11:39:47.430Z,1.92
2023-11-16T11:42:18.448Z,1.60
2023-11-16T11:44:52.816Z,1.50
2023-11-16T11:47:25.534Z,1.40
2023-11-16T11:49:52.656Z,1.50
2023-11-16T11:52:20.427Z,1.33
2023-11-16T11:54:47.228Z,1.60
2023-11-16T11:57:18.033Z,1.50
2023-11-16T11:59:50.465Z,1.40
2023-11-16T12:02:18.954Z,1.30
2023-11-16T12:04:45.797Z,1.50
2023-11-16T12:07:13.615Z,1.45
2023-11-16T12:09:45.367Z,1.13
2023-11-16T12:12:12.495Z,1.67
2023-11-16T12:14:49.137Z,1.70
2023-11-16T12:17:22.209Z,1.30
2023-11-16T12:19:50.218Z,1.70
2023-11-16T12:22:17.558Z,1.42
2023-11-16T12:24:48.009Z,1.38
2023-11-16T12:30:00.544Z,1.77
2023-11-16T12:32:28.147Z,1.50
2023-11-16T12:34:55.467Z,1.30
2023-11-16T12:37:23.370Z,1.15
2023-11-16T12:39:52.035Z,1.63
2023-11-16T12:42:24.231Z,1.33
2023-11-16T12:44:51.887Z,1.25
2023-11-16T12:47:22.450Z,1.20
2023-11-16T12:49:53.555Z,1.98
2023-11-16T12:52:21.680Z,1.30
2023-11-16T12:54:48.473Z,1.30
2023-11-16T12:57:15.372Z,2.28
2023-11-16T12:59:42.138Z,1.25
2023-11-16T13:04:39.809Z,1.15
2023-11-16T13:07:06.929Z,1.30
2023-11-16T13:09:33.607Z,1.50
2023-11-16T13:12:08.289Z,1.20
2023-11-16T13:14:44.010Z,1.50
2023-11-16T13:17:11.054Z,1.50
2023-11-16T13:19:38.269Z,1.20
2023-11-16T13:22:05.491Z,1.10
2023-11-16T13:24:32.195Z,1.30
2023-11-16T13:26:58.917Z,1.30
2023-11-16T13:29:25.717Z,1.65
2023-11-16T13:31:52.427Z,1.20
2023-11-16T13:34:19.103Z,1.40
2023-11-16T13:36:47.100Z,1.27
2023-11-16T13:39:15.707Z,1.63
2023-11-16T13:41:42.583Z,1.27
2023-11-16T13:44:09.719Z,1.25
2023-11-16T13:46:37.450Z,1.30
2023-11-16T13:49:05.094Z,1.23
2023-11-16T13:51:32.242Z,1.30
2023-11-16T13:53:58.913Z,1.13
2023-11-16T13:56:25.777Z,1.45
2023-11-16T13:58:55.970Z,1.17
2023-11-16T14:01:23.770Z,1.27
2023-11-16T14:03:51.516Z,1.40
2023-11-16T14:06:18.489Z,1.13
2023-11-16T14:08:45.103Z,1.20
2023-11-16T14:11:14.171Z,1.30
2023-11-16T14:13:45.219Z,1.10
2023-11-16T14:16:14.489Z,1.10
2023-11-16T14:21:09.353Z,1.23
2023-11-16T14:23:39.574Z,2.13
2023-11-16T14:26:09.734Z,1.20
2023-11-16T14:28:37.084Z,1.40
2023-11-16T14:31:07.244Z,1.40
2023-11-16T14:33:35.065Z,1.30
2023-11-16T14:36:02.243Z,1.13
2023-11-16T14:38:28.912Z,1.27
2023-11-16T14:40:55.607Z,1.30
2023-11-16T14:43:22.618Z,1.30
2023-11-16T14:45:49.347Z,1.30
2023-11-16T14:48:16.330Z,1.27
2023-11-16T14:50:43.286Z,1.20
2023-11-16T14:53:11.687Z,1.30
2023-11-16T14:55:39.936Z,1.10
2023-11-16T14:58:06.749Z,1.02
2023-11-16T15:00:33.710Z,1.10
2023-11-16T15:03:01.099Z,1.13
2023-11-16T15:05:35.258Z,1.30
2023-11-16T15:08:05.180Z,1.20
2023-11-16T15:10:32.121Z,1.17
2023-11-16T15:12:58.848Z,1.10
2023-11-16T15:15:25.652Z,1.08
2023-11-16T15:17:52.648Z,1.30
2023-11-16T15:20:26.518Z,1.10
2023-11-16T15:22:57.086Z,1.40
2023-11-16T15:25:24.098Z,1.25
2023-11-16T15:27:51.280Z,1.23
2023-11-16T15:30:18.408Z,1.50
2023-11-16T15:32:45.162Z,1.75
2023-11-16T15:35:12.890Z,1.77
2023-11-16T15:37:39.712Z,1.75
2023-11-16T15:40:07.151Z,2.20
2023-11-16T15:42:34.433Z,2.17
2023-11-16T15:45:02.011Z,2.45
2023-11-16T15:47:28.938Z,2.40
2023-11-16T15:49:55.780Z,2.80
2023-11-16T15:52:24.265Z,2.75
2023-11-16T15:54:51.875Z,2.67
2023-11-16T15:57:26.672Z,2.80
2023-11-16T15:59:58.934Z,2.72
2023-11-16T16:02:29.921Z,2.90
2023-11-16T16:04:58.240Z,2.85
2023-11-16T16:07:25.101Z,2.10
2023-11-16T16:09:52.749Z,2.20
2023-11-16T16:12:19.753Z,2.33
2023-11-16T16:14:46.968Z,2.15
2023-11-16T16:17:15.073Z,2.40
2023-11-16T16:19:42.288Z,2.35
2023-11-16T16:22:09.363Z,2.45
2023-11-16T16:24:36.737Z,3.15
2023-11-16T16:27:08.552Z,3.38
2023-11-16T16:29:37.153Z,3.47
2023-11-16T16:32:05.514Z,4.40
2023-11-16T16:34:32.365Z,4.57
2023-11-16T16:36:59.207Z,5.38
2023-11-16T16:39:26.422Z,5.28
2023-11-16T16:41:54.673Z,5.10
2023-11-16T16:44:21.626Z,4.68
2023-11-16T16:46:49.183Z,4.35
2023-11-16T16:49:16.499Z,3.90
2023-11-16T16:51:44.917Z,3.63
2023-11-16T16:54:14.972Z,4.60
2023-11-16T16:56:43.244Z,3.90
2023-11-16T16:59:10.520Z,4.10
2023-11-16T17:01:38.408Z,4.30
2023-11-16T17:04:07.260Z,5.53
2023-11-16T17:06:34.380Z,5.50
2023-11-16T17:09:01.764Z,6.80
2023-11-16T17:11:28.494Z,5.15
2023-11-16T17:13:56.643Z,6.95
2023-11-16T17:16:23.795Z,6.15
2023-11-16T17:18:51.697Z,7.15
2023-11-16T17:21:22.393Z,6.13
2023-11-16T17:23:52.050Z,5.68
2023-11-16T17:26:20.779Z,5.80
2023-11-16T17:28:48.873Z,4.88
2023-11-16T17:31:16.291Z,4.05
2023-11-16T17:33:43.096Z,3.92
2023-11-16T17:36:10.059Z,3.80
2023-11-16T17:38:37.078Z,3.17
2023-11-16T17:41:06.343Z,3.20
2023-11-16T17:43:39.346Z,3.22
2023-11-16T17:46:07.815Z,3.17
2023-11-16T17:48:34.903Z,2.67
2023-11-16T17:51:03.514Z,2.88
2023-11-16T17:53:30.614Z,2.60
2023-11-16T17:55:57.937Z,3.03
2023-11-16T17:58:25.649Z,2.60
2023-11-16T18:00:53.877Z,2.60
2023-11-16T18:03:20.748Z,2.90
2023-11-16T18:05:47.504Z,2.90
2023-11-16T18:08:14.261Z,3.00
2023-11-16T18:10:45.458Z,3.50
2023-11-16T18:13:17.966Z,6.47
2023-11-16T18:15:45.223Z,8.90
2023-11-16T18:18:12.382Z,11.55
2023-11-16T18:20:40.446Z,11.20
2023-11-16T18:23:09.444Z,11.13
2023-11-16T18:25:41.652Z,8.57
2023-11-16T18:28:14.482Z,7.80
2023-11-16T18:30:44.132Z,6.45
2023-11-16T18:33:11.636Z,7.87
2023-11-16T18:35:40.825Z,9.77
2023-11-16T18:38:12.500Z,8.70
2023-11-16T18:40:43.438Z,9.02
2023-11-16T18:43:12.322Z,9.18
2023-11-16T18:45:40.000Z,9.15
2023-11-16T18:48:13.923Z,8.20
2023-11-16T18:50:43.471Z,7.43
2023-11-16T18:53:11.197Z,6.93
2023-11-16T18:55:38.454Z,7.85
2023-11-16T18:58:08.050Z,7.20
2023-11-16T19:00:35.037Z,6.43
2023-11-16T19:03:15.362Z,7.10
2023-11-16T19:05:43.838Z,7.57
2023-11-16T19:08:12.594Z,8.63
2023-11-16T19:10:42.497Z,7.82
2023-11-16T19:13:13.101Z,9.73
2023-11-16T19:18:08.432Z,9.32
2023-11-16T19:20:37.833Z,10.15
2023-11-16T19:23:08.743Z,11.13
2023-11-16T19:25:38.795Z,10.77
2023-11-16T19:28:07.884Z,11.27
2023-11-16T19:30:35.030Z,12.55
2023-11-16T19:33:02.983Z,13.00
2023-11-16T19:35:29.713Z,14.93
2023-11-16T19:37:56.410Z,16.38
2023-11-16T19:40:33.617Z,16.88
2023-11-16T19:43:07.831Z,15.80
2023-11-16T19:45:37.794Z,16.83
2023-11-16T19:48:06.547Z,14.93
2023-11-16T19:50:39.574Z,13.80
2023-11-16T19:53:07.410Z,12.18
2023-11-16T19:55:34.579Z,11.07
2023-11-16T19:58:01.391Z,9.43
2023-11-16T20:00:28.197Z,7.50
2023-11-16T20:02:55.237Z,7.07
2023-11-16T20:05:22.301Z,6.40
2023-11-16T20:07:49.088Z,5.75
2023-11-16T20:10:16.739Z,5.40
2023-11-16T20:12:44.323Z,4.97
2023-11-16T20:15:14.176Z,4.68
2023-11-16T20:17:46.388Z,4.60
2023-11-16T20:20:16.868Z,4.35
2023-11-16T20:22:48.100Z,4.43
2023-11-16T20:25:18.411Z,4.00
2023-11-16T20:30:12.871Z,3.95
2023-11-16T20:32:40.520Z,4.57
2023-11-16T20:35:12.173Z,4.72
2023-11-16T20:37:45.073Z,6.22
2023-11-16T20:40:18.758Z,11.15
2023-11-16T20:42:54.948Z,10.82
2023-11-16T20:45:21.726Z,10.75
2023-11-16T20:47:48.635Z,12.85
2023-11-16T20:50:16.630Z,13.27
2023-11-16T20:52:44.800Z,13.25
2023-11-16T20:55:12.024Z,12.05
2023-11-16T20:57:40.211Z,11.10
2023-11-16T21:00:13.118Z,10.85
2023-11-16T21:02:43.635Z,10.32
2023-11-16T21:05:11.256Z,10.15
2023-11-16T21:07:38.174Z,8.73
2023-11-16T21:10:05.549Z,7.60
2023-11-16T21:12:32.669Z,7.15
2023-11-16T21:14:59.742Z,6.90
2023-11-16T21:17:28.733Z,6.88
2023-11-16T21:19:55.518Z,6.90
2023-11-16T21:22:22.250Z,7.35
2023-11-16T21:24:49.055Z,7.65
2023-11-16T21:27:15.797Z,13.02
2023-11-16T21:29:43.841Z,13.95
2023-11-16T21:32:11.637Z,14.27
2023-11-16T21:34:44.433Z,15.88
2023-11-16T21:37:11.420Z,14.82
2023-11-16T21:39:38.573Z,13.60
2023-11-16T21:42:06.529Z,13.20
2023-11-16T21:44:33.832Z,12.38
2023-11-16T21:47:01.767Z,11.55
2023-11-16T21:49:28.922Z,11.57
2023-11-16T21:51:56.694Z,10.98
2023-11-16T21:54:23.683Z,9.43
2023-11-16T21:56:51.019Z,7.95
2023-11-16T21:59:20.750Z,7.10
2023-11-16T22:01:50.861Z,6.82
2023-11-16T22:04:18.334Z,6.43
2023-11-16T22:06:46.284Z,5.30
2023-11-16T22:09:15.141Z,5.35
2023-11-16T22:11:42.256Z,4.82
2023-11-16T22:14:11.537Z,4.93
2023-11-16T22:16:39.037Z,4.70
2023-11-16T22:19:06.126Z,4.38
2023-11-16T22:21:34.971Z,4.85
2023-11-16T22:24:01.947Z,4.60
2023-11-16T22:26:30.550Z,4.43
2023-11-16T22:28:57.755Z,4.57
2023-11-16T22:31:24.748Z,4.43
2023-11-16T22:33:53.698Z,4.40
2023-11-16T22:36:20.574Z,4.25
2023-11-16T22:38:47.379Z,4.25
2023-11-16T22:41:14.353Z,4.30
2023-11-16T22:43:41.981Z,4.40
2023-11-16T22:46:09.007Z,4.63
2023-11-16T22:48:35.974Z,4.18
2023-11-16T22:51:02.806Z,4.13
2023-11-16T22:53:29.728Z,4.55
2023-11-16T22:55:56.638Z,3.47
2023-11-16T22:58:23.314Z,3.88
2023-11-16T23:00:50.934Z,3.97
2023-11-16T23:03:18.562Z,3.80
2023-11-16T23:05:49.024Z,3.70
2023-11-16T23:08:17.884Z,3.90
2023-11-16T23:10:44.688Z,3.78
2023-11-16T23:13:13.463Z,3.72
2023-11-16T23:15:41.168Z,4.15
2023-11-16T23:18:09.764Z,3.85
2023-11-16T23:20:37.472Z,4.03
2023-11-16T23:23:06.224Z,3.83
2023-11-16T23:25:34.315Z,4.10
2023-11-16T23:28:01.182Z,3.75
2023-11-16T23:30:28.837Z,3.65
2023-11-16T23:32:56.127Z,3.97
2023-11-16T23:35:24.738Z,4.00
2023-11-16T23:37:51.939Z,4.32
2023-11-16T23:40:19.732Z,3.63
2023-11-16T23:42:47.465Z,3.65
2023-11-16T23:45:16.106Z,3.30
2023-11-16T23:47:43.328Z,3.70
2023-11-16T23:50:10.717Z,3.60
2023-11-16T23:52:37.732Z,3.72
2023-11-16T23:55:04.885Z,3.40
2023-11-16T23:57:32.536Z,4.18
2023-11-16T23:59:59.306Z,3.50
